sensor_id;sensor_type;location;lat;lon;timestamp;P1;durP1;ratioP1;P2;durP2;ratioP2
5995;SDS011;3026;53.612;7.278;2023-11-18T00:02:13;10.20;;;7.80;;
5995;SDS011;3026;53.612;7.278;2023-11-18T00:04:42;10.50;;;7.83;;
5995;SDS011;3026;53.612;7.278;2023-11-18T00:07:11;12.70;;;8.67;;
5995;SDS011;3026;53.612;7.278;2023-11-18T00:09:39;10.93;;;7.97;;
5995;SDS011;3026;53.612;7.278;2023-11-18T00:12:08;12.40;;;9.03;;
5995;SDS011;3026;53.612;7.278;2023-11-18T00:14:35;13.03;;;8.27;;
5995;SDS011;3026;53.612;7.278;2023-11-18T00:17:03;12.33;;;8.50;;
5995;SDS011;3026;53.612;7.278;2023-11-18T00:19:30;11.73;;;8.97;;
5995;SDS011;3026;53.612;7.278;2023-11-18T00:22:03;10.00;;;7.60;;
5995;SDS011;3026;53.612;7.278;2023-11-18T00:24:31;11.80;;;8.40;;
5995;SDS011;3026;53.612;7.278;2023-11-18T00:27:00;12.57;;;9.17;;
5995;SDS011;3026;53.612;7.278;2023-11-18T00:29:31;12.93;;;8.40;;
5995;SDS011;3026;53.612;7.278;2023-11-18T00:32:01;17.40;;;8.70;;
5995;SDS011;3026;53.612;7.278;2023-11-18T00:34:30;16.83;;;9.17;;
5995;SDS011;3026;53.612;7.278;2023-11-18T00:36:57;16.10;;;10.13;;
5995;SDS011;3026;53.612;7.278;2023-11-18T00:39:25;13.03;;;9.17;;
5995;SDS011;3026;53.612;7.278;2023-11-18T00:41:53;14.60;;;10.00;;
5995;SDS011;3026;53.612;7.278;2023-11-18T00:44:21;15.80;;;10.07;;
5995;SDS011;3026;53.612;7.278;2023-11-18T00:46:48;17.33;;;10.60;;
5995;SDS011;3026;53.612;7.278;2023-11-18T00:49:15;15.27;;;10.40;;
5995;SDS011;3026;53.612;7.278;2023-11-18T00:51:44;21.03;;;11.17;;
5995;SDS011;3026;53.612;7.278;2023-11-18T00:54:10;22.00;;;12.50;;
5995;SDS011;3026;53.612;7.278;2023-11-18T00:56:39;25.43;;;12.63;;
5995;SDS011;3026;53.612;7.278;2023-11-18T00:59:07;29.20;;;13.27;;
5995;SDS011;3026;53.612;7.278;2023-11-18T01:01:34;33.97;;;14.13;;
5995;SDS011;3026;53.612;7.278;2023-11-18T01:04:04;31.23;;;15.33;;
5995;SDS011;3026;53.612;7.278;2023-11-18T01:06:31;65.13;;;15.50;;
5995;SDS011;3026;53.612;7.278;2023-11-18T01:09:00;35.93;;;14.93;;
5995;SDS011;3026;53.612;7.278;2023-11-18T01:11:29;41.20;;;15.67;;
5995;SDS011;3026;53.612;7.278;2023-11-18T01:13:59;18.27;;;12.97;;
5995;SDS011;3026;53.612;7.278;2023-11-18T01:16:47;46.57;;;15.00;;
5995;SDS011;3026;53.612;7.278;2023-11-18T01:19:15;28.97;;;14.63;;
5995;SDS011;3026;53.612;7.278;2023-11-18T01:21:43;30.80;;;14.57;;
5995;SDS011;3026;53.612;7.278;2023-11-18T01:24:12;48.13;;;15.13;;
5995;SDS011;3026;53.612;7.278;2023-11-18T01:26:40;99.13;;;19.63;;
5995;SDS011;3026;53.612;7.278;2023-11-18T01:29:09;52.00;;;16.63;;
5995;SDS011;3026;53.612;7.278;2023-11-18T01:31:39;48.43;;;15.83;;
5995;SDS011;3026;53.612;7.278;2023-11-18T01:34:08;42.97;;;15.27;;
5995;SDS011;3026;53.612;7.278;2023-11-18T01:36:38;34.73;;;15.07;;
5995;SDS011;3026;53.612;7.278;2023-11-18T01:39:06;37.77;;;15.17;;
5995;SDS011;3026;53.612;7.278;2023-11-18T01:41:33;26.77;;;13.97;;
5995;SDS011;3026;53.612;7.278;2023-11-18T01:44:02;33.40;;;14.53;;
5995;SDS011;3026;53.612;7.278;2023-11-18T01:46:36;75.63;;;17.17;;
5995;SDS011;3026;53.612;7.278;2023-11-18T01:49:05;40.63;;;14.97;;
5995;SDS011;3026;53.612;7.278;2023-11-18T01:51:35;49.83;;;15.23;;
5995;SDS011;3026;53.612;7.278;2023-11-18T01:54:06;53.10;;;14.40;;
5995;SDS011;3026;53.612;7.278;2023-11-18T01:56:38;45.80;;;16.23;;
5995;SDS011;3026;53.612;7.278;2023-11-18T01:59:08;23.33;;;13.17;;
5995;SDS011;3026;53.612;7.278;2023-11-18T02:01:38;32.63;;;14.33;;
5995;SDS011;3026;53.612;7.278;2023-11-18T02:04:08;39.57;;;14.27;;
5995;SDS011;3026;53.612;7.278;2023-11-18T02:06:36;69.10;;;18.07;;
5995;SDS011;3026;53.612;7.278;2023-11-18T02:09:03;46.77;;;13.97;;
5995;SDS011;3026;53.612;7.278;2023-11-18T02:11:31;35.37;;;13.03;;
5995;SDS011;3026;53.612;7.278;2023-11-18T02:14:06;55.23;;;14.93;;
5995;SDS011;3026;53.612;7.278;2023-11-18T02:16:41;28.67;;;13.30;;
5995;SDS011;3026;53.612;7.278;2023-11-18T02:19:15;49.43;;;15.40;;
5995;SDS011;3026;53.612;7.278;2023-11-18T02:21:47;34.43;;;14.63;;
5995;SDS011;3026;53.612;7.278;2023-11-18T02:24:27;34.83;;;14.13;;
5995;SDS011;3026;53.612;7.278;2023-11-18T02:26:57;27.33;;;15.03;;
5995;SDS011;3026;53.612;7.278;2023-11-18T02:29:26;30.83;;;14.77;;
5995;SDS011;3026;53.612;7.278;2023-11-18T02:31:59;23.00;;;14.33;;
5995;SDS011;3026;53.612;7.278;2023-11-18T02:34:35;92.10;;;19.20;;
5995;SDS011;3026;53.612;7.278;2023-11-18T02:37:08;55.40;;;17.50;;
5995;SDS011;3026;53.612;7.278;2023-11-18T02:39:39;30.03;;;15.90;;
5995;SDS011;3026;53.612;7.278;2023-11-18T02:42:11;30.27;;;15.80;;
5995;SDS011;3026;53.612;7.278;2023-11-18T02:44:39;35.60;;;14.63;;
5995;SDS011;3026;53.612;7.278;2023-11-18T02:47:09;37.10;;;17.00;;
5995;SDS011;3026;53.612;7.278;2023-11-18T02:49:37;37.83;;;15.93;;
5995;SDS011;3026;53.612;7.278;2023-11-18T02:52:06;23.03;;;15.57;;
5995;SDS011;3026;53.612;7.278;2023-11-18T02:54:35;22.87;;;15.30;;
5995;SDS011;3026;53.612;7.278;2023-11-18T02:57:02;28.73;;;14.80;;
5995;SDS011;3026;53.612;7.278;2023-11-18T02:59:31;80.00;;;18.73;;
5995;SDS011;3026;53.612;7.278;2023-11-18T03:01:59;31.07;;;15.23;;
5995;SDS011;3026;53.612;7.278;2023-11-18T03:04:26;32.73;;;15.33;;
5995;SDS011;3026;53.612;7.278;2023-11-18T03:06:55;31.93;;;14.57;;
5995;SDS011;3026;53.612;7.278;2023-11-18T03:09:21;33.00;;;16.17;;
5995;SDS011;3026;53.612;7.278;2023-11-18T03:11:53;89.90;;;19.27;;
5995;SDS011;3026;53.612;7.278;2023-11-18T03:14:20;81.00;;;18.50;;
5995;SDS011;3026;53.612;7.278;2023-11-18T03:16:53;22.67;;;14.27;;
5995;SDS011;3026;53.612;7.278;2023-11-18T03:19:20;31.87;;;14.50;;
5995;SDS011;3026;53.612;7.278;2023-11-18T03:21:50;110.87;;;20.10;;
5995;SDS011;3026;53.612;7.278;2023-11-18T03:24:23;43.93;;;15.87;;
5995;SDS011;3026;53.612;7.278;2023-11-18T03:26:50;34.53;;;15.37;;
5995;SDS011;3026;53.612;7.278;2023-11-18T03:29:17;52.93;;;16.23;;
5995;SDS011;3026;53.612;7.278;2023-11-18T03:31:45;70.10;;;17.23;;
5995;SDS011;3026;53.612;7.278;2023-11-18T03:34:15;85.07;;;18.30;;
5995;SDS011;3026;53.612;7.278;2023-11-18T03:36:45;101.43;;;20.10;;
5995;SDS011;3026;53.612;7.278;2023-11-18T03:39:12;48.83;;;17.43;;
5995;SDS011;3026;53.612;7.278;2023-11-18T03:41:39;91.50;;;20.67;;
5995;SDS011;3026;53.612;7.278;2023-11-18T03:44:11;28.37;;;16.20;;
5995;SDS011;3026;53.612;7.278;2023-11-18T03:46:39;96.70;;;19.53;;
5995;SDS011;3026;53.612;7.278;2023-11-18T03:49:06;100.00;;;21.83;;
5995;SDS011;3026;53.612;7.278;2023-11-18T03:51:35;40.67;;;16.83;;
5995;SDS011;3026;53.612;7.278;2023-11-18T03:54:04;57.87;;;18.70;;
5995;SDS011;3026;53.612;7.278;2023-11-18T03:56:33;48.40;;;18.40;;
5995;SDS011;3026;53.612;7.278;2023-11-18T03:59:01;54.57;;;18.13;;
5995;SDS011;3026;53.612;7.278;2023-11-18T04:01:29;36.40;;;16.77;;
5995;SDS011;3026;53.612;7.278;2023-11-18T04:03:58;40.77;;;16.07;;
5995;SDS011;3026;53.612;7.278;2023-11-18T04:06:29;56.57;;;18.80;;
5995;SDS011;3026;53.612;7.278;2023-11-18T04:08:57;35.70;;;17.43;;
5995;SDS011;3026;53.612;7.278;2023-11-18T04:11:24;104.47;;;22.57;;
5995;SDS011;3026;53.612;7.278;2023-11-18T04:13:51;67.73;;;20.00;;
5995;SDS011;3026;53.612;7.278;2023-11-18T04:16:18;90.47;;;21.20;;
5995;SDS011;3026;53.612;7.278;2023-11-18T04:18:45;36.03;;;18.27;;
5995;SDS011;3026;53.612;7.278;2023-11-18T04:21:14;41.77;;;17.80;;
5995;SDS011;3026;53.612;7.278;2023-11-18T04:23:42;51.23;;;18.63;;
5995;SDS011;3026;53.612;7.278;2023-11-18T04:26:14;102.90;;;22.20;;
5995;SDS011;3026;53.612;7.278;2023-11-18T04:28:41;43.10;;;18.80;;
5995;SDS011;3026;53.612;7.278;2023-11-18T04:31:09;58.93;;;22.30;;
5995;SDS011;3026;53.612;7.278;2023-11-18T04:33:36;36.30;;;19.23;;
5995;SDS011;3026;53.612;7.278;2023-11-18T04:36:05;34.77;;;18.03;;
5995;SDS011;3026;53.612;7.278;2023-11-18T04:38:35;34.37;;;18.73;;
5995;SDS011;3026;53.612;7.278;2023-11-18T04:41:02;62.90;;;21.50;;
5995;SDS011;3026;53.612;7.278;2023-11-18T04:43:31;108.27;;;24.10;;
5995;SDS011;3026;53.612;7.278;2023-11-18T04:45:59;39.63;;;18.63;;
5995;SDS011;3026;53.612;7.278;2023-11-18T04:48:27;40.00;;;19.43;;
5995;SDS011;3026;53.612;7.278;2023-11-18T04:50:53;47.47;;;19.90;;
5995;SDS011;3026;53.612;7.278;2023-11-18T04:53:20;41.87;;;19.77;;
5995;SDS011;3026;53.612;7.278;2023-11-18T04:55:47;46.77;;;20.40;;
5995;SDS011;3026;53.612;7.278;2023-11-18T04:58:16;77.47;;;22.27;;
5995;SDS011;3026;53.612;7.278;2023-11-18T05:00:46;58.93;;;21.57;;
5995;SDS011;3026;53.612;7.278;2023-11-18T05:03:16;49.63;;;22.07;;
5995;SDS011;3026;53.612;7.278;2023-11-18T05:05:43;85.23;;;22.77;;
5995;SDS011;3026;53.612;7.278;2023-11-18T05:08:17;39.27;;;19.17;;
5995;SDS011;3026;53.612;7.278;2023-11-18T05:10:46;44.17;;;19.37;;
5995;SDS011;3026;53.612;7.278;2023-11-18T05:13:14;35.07;;;19.67;;
5995;SDS011;3026;53.612;7.278;2023-11-18T05:15:42;57.47;;;21.97;;
5995;SDS011;3026;53.612;7.278;2023-11-18T05:18:13;38.27;;;19.60;;
5995;SDS011;3026;53.612;7.278;2023-11-18T05:20:40;76.03;;;23.83;;
5995;SDS011;3026;53.612;7.278;2023-11-18T05:23:09;47.23;;;20.23;;
5995;SDS011;3026;53.612;7.278;2023-11-18T05:25:36;71.90;;;21.53;;
5995;SDS011;3026;53.612;7.278;2023-11-18T05:28:06;43.27;;;18.90;;
5995;SDS011;3026;53.612;7.278;2023-11-18T05:30:34;33.83;;;19.03;;
5995;SDS011;3026;53.612;7.278;2023-11-18T05:33:02;34.93;;;18.73;;
5995;SDS011;3026;53.612;7.278;2023-11-18T05:35:33;46.97;;;18.80;;
5995;SDS011;3026;53.612;7.278;2023-11-18T05:38:00;43.93;;;21.00;;
5995;SDS011;3026;53.612;7.278;2023-11-18T05:40:29;32.93;;;18.70;;
5995;SDS011;3026;53.612;7.278;2023-11-18T05:42:56;36.73;;;19.83;;
5995;SDS011;3026;53.612;7.278;2023-11-18T05:45:24;39.60;;;20.17;;
5995;SDS011;3026;53.612;7.278;2023-11-18T05:47:57;55.30;;;22.07;;
5995;SDS011;3026;53.612;7.278;2023-11-18T05:50:25;60.47;;;21.97;;
5995;SDS011;3026;53.612;7.278;2023-11-18T05:52:54;83.47;;;22.93;;
5995;SDS011;3026;53.612;7.278;2023-11-18T05:55:21;45.80;;;20.00;;
5995;SDS011;3026;53.612;7.278;2023-11-18T05:57:54;48.20;;;20.10;;
5995;SDS011;3026;53.612;7.278;2023-11-18T06:00:21;74.27;;;22.83;;
5995;SDS011;3026;53.612;7.278;2023-11-18T06:02:50;34.40;;;19.83;;
5995;SDS011;3026;53.612;7.278;2023-11-18T06:05:17;35.13;;;19.43;;
5995;SDS011;3026;53.612;7.278;2023-11-18T06:07:44;39.57;;;19.03;;
5995;SDS011;3026;53.612;7.278;2023-11-18T06:10:14;34.97;;;20.37;;
5995;SDS011;3026;53.612;7.278;2023-11-18T06:12:41;58.23;;;22.10;;
5995;SDS011;3026;53.612;7.278;2023-11-18T06:15:08;34.30;;;18.63;;
5995;SDS011;3026;53.612;7.278;2023-11-18T06:17:39;39.60;;;20.27;;
5995;SDS011;3026;53.612;7.278;2023-11-18T06:20:07;35.83;;;19.17;;
5995;SDS011;3026;53.612;7.278;2023-11-18T06:22:37;36.57;;;19.60;;
5995;SDS011;3026;53.612;7.278;2023-11-18T06:25:05;36.63;;;19.43;;
5995;SDS011;3026;53.612;7.278;2023-11-18T06:27:39;36.20;;;19.93;;
5995;SDS011;3026;53.612;7.278;2023-11-18T06:30:06;43.90;;;22.33;;
5995;SDS011;3026;53.612;7.278;2023-11-18T06:32:37;51.33;;;21.50;;
5995;SDS011;3026;53.612;7.278;2023-11-18T06:35:04;44.60;;;20.77;;
5995;SDS011;3026;53.612;7.278;2023-11-18T06:37:33;55.23;;;21.77;;
5995;SDS011;3026;53.612;7.278;2023-11-18T06:40:01;44.03;;;20.77;;
5995;SDS011;3026;53.612;7.278;2023-11-18T06:42:33;48.13;;;22.50;;
5995;SDS011;3026;53.612;7.278;2023-11-18T06:45:03;49.67;;;21.97;;
5995;SDS011;3026;53.612;7.278;2023-11-18T06:47:35;41.93;;;20.73;;
5995;SDS011;3026;53.612;7.278;2023-11-18T06:50:03;40.03;;;19.70;;
5995;SDS011;3026;53.612;7.278;2023-11-18T06:52:36;42.00;;;22.10;;
5995;SDS011;3026;53.612;7.278;2023-11-18T06:55:04;43.90;;;20.97;;
5995;SDS011;3026;53.612;7.278;2023-11-18T06:57:32;41.23;;;21.60;;
5995;SDS011;3026;53.612;7.278;2023-11-18T06:59:59;45.20;;;22.87;;
5995;SDS011;3026;53.612;7.278;2023-11-18T07:02:27;44.83;;;22.53;;
5995;SDS011;3026;53.612;7.278;2023-11-18T07:04:56;41.80;;;21.00;;
5995;SDS011;3026;53.612;7.278;2023-11-18T07:07:23;45.47;;;21.23;;
5995;SDS011;3026;53.612;7.278;2023-11-18T07:09:50;45.67;;;22.37;;
5995;SDS011;3026;53.612;7.278;2023-11-18T07:12:17;45.00;;;22.17;;
5995;SDS011;3026;53.612;7.278;2023-11-18T07:14:47;43.67;;;22.33;;
5995;SDS011;3026;53.612;7.278;2023-11-18T07:17:14;45.43;;;21.77;;
5995;SDS011;3026;53.612;7.278;2023-11-18T07:19:46;42.33;;;21.87;;
5995;SDS011;3026;53.612;7.278;2023-11-18T07:22:13;40.80;;;20.87;;
5995;SDS011;3026;53.612;7.278;2023-11-18T07:24:40;50.17;;;24.30;;
5995;SDS011;3026;53.612;7.278;2023-11-18T07:27:08;51.07;;;24.07;;
5995;SDS011;3026;53.612;7.278;2023-11-18T07:29:37;49.00;;;23.60;;
5995;SDS011;3026;53.612;7.278;2023-11-18T07:32:05;48.50;;;23.60;;
5995;SDS011;3026;53.612;7.278;2023-11-18T07:34:34;46.40;;;22.80;;
5995;SDS011;3026;53.612;7.278;2023-11-18T07:37:05;53.00;;;25.33;;
5995;SDS011;3026;53.612;7.278;2023-11-18T07:39:33;43.73;;;23.13;;
5995;SDS011;3026;53.612;7.278;2023-11-18T07:42:09;48.60;;;25.03;;
5995;SDS011;3026;53.612;7.278;2023-11-18T07:44:37;45.73;;;24.23;;
5995;SDS011;3026;53.612;7.278;2023-11-18T07:47:05;43.03;;;22.67;;
5995;SDS011;3026;53.612;7.278;2023-11-18T07:49:33;46.50;;;22.60;;
5995;SDS011;3026;53.612;7.278;2023-11-18T07:52:01;47.53;;;22.50;;
5995;SDS011;3026;53.612;7.278;2023-11-18T07:54:30;41.30;;;21.80;;
5995;SDS011;3026;53.612;7.278;2023-11-18T07:56:58;45.13;;;22.03;;
5995;SDS011;3026;53.612;7.278;2023-11-18T07:59:25;44.80;;;22.23;;
5995;SDS011;3026;53.612;7.278;2023-11-18T08:01:54;44.73;;;24.50;;
5995;SDS011;3026;53.612;7.278;2023-11-18T08:04:21;47.80;;;24.57;;
5995;SDS011;3026;53.612;7.278;2023-11-18T08:06:49;43.83;;;23.00;;
5995;SDS011;3026;53.612;7.278;2023-11-18T08:09:17;44.63;;;22.77;;
5995;SDS011;3026;53.612;7.278;2023-11-18T08:11:50;48.67;;;23.53;;
5995;SDS011;3026;53.612;7.278;2023-11-18T08:14:18;44.17;;;20.90;;
5995;SDS011;3026;53.612;7.278;2023-11-18T08:16:46;41.17;;;22.60;;
5995;SDS011;3026;53.612;7.278;2023-11-18T08:19:14;44.63;;;21.83;;
5995;SDS011;3026;53.612;7.278;2023-11-18T08:21:42;38.30;;;20.37;;
5995;SDS011;3026;53.612;7.278;2023-11-18T08:24:08;41.53;;;21.43;;
5995;SDS011;3026;53.612;7.278;2023-11-18T08:26:36;43.20;;;23.27;;
5995;SDS011;3026;53.612;7.278;2023-11-18T08:29:04;43.00;;;22.63;;
5995;SDS011;3026;53.612;7.278;2023-11-18T08:31:31;44.00;;;22.57;;
5995;SDS011;3026;53.612;7.278;2023-11-18T08:34:01;47.20;;;24.17;;
5995;SDS011;3026;53.612;7.278;2023-11-18T08:36:30;38.80;;;21.17;;
5995;SDS011;3026;53.612;7.278;2023-11-18T08:38:58;42.27;;;23.03;;
5995;SDS011;3026;53.612;7.278;2023-11-18T08:41:26;43.63;;;22.33;;
5995;SDS011;3026;53.612;7.278;2023-11-18T08:43:53;38.57;;;21.67;;
5995;SDS011;3026;53.612;7.278;2023-11-18T08:46:22;39.20;;;21.40;;
5995;SDS011;3026;53.612;7.278;2023-11-18T08:48:50;40.70;;;22.23;;
5995;SDS011;3026;53.612;7.278;2023-11-18T08:51:17;39.87;;;21.97;;
5995;SDS011;3026;53.612;7.278;2023-11-18T08:53:46;37.83;;;21.13;;
5995;SDS011;3026;53.612;7.278;2023-11-18T08:56:16;44.53;;;23.40;;
5995;SDS011;3026;53.612;7.278;2023-11-18T08:58:45;37.63;;;22.17;;
5995;SDS011;3026;53.612;7.278;2023-11-18T09:01:13;45.57;;;21.87;;
5995;SDS011;3026;53.612;7.278;2023-11-18T09:03:44;41.70;;;22.20;;
5995;SDS011;3026;53.612;7.278;2023-11-18T09:06:15;39.10;;;21.60;;
5995;SDS011;3026;53.612;7.278;2023-11-18T09:08:51;44.67;;;21.70;;
5995;SDS011;3026;53.612;7.278;2023-11-18T09:11:19;41.40;;;22.33;;
5995;SDS011;3026;53.612;7.278;2023-11-18T09:13:47;40.57;;;21.87;;
5995;SDS011;3026;53.612;7.278;2023-11-18T09:16:19;39.67;;;21.77;;
5995;SDS011;3026;53.612;7.278;2023-11-18T09:18:48;43.03;;;22.60;;
5995;SDS011;3026;53.612;7.278;2023-11-18T09:21:16;42.93;;;22.67;;
5995;SDS011;3026;53.612;7.278;2023-11-18T09:23:48;43.73;;;22.37;;
5995;SDS011;3026;53.612;7.278;2023-11-18T09:26:15;38.83;;;21.60;;
5995;SDS011;3026;53.612;7.278;2023-11-18T09:28:43;42.40;;;22.80;;
5995;SDS011;3026;53.612;7.278;2023-11-18T09:31:11;43.63;;;22.90;;
5995;SDS011;3026;53.612;7.278;2023-11-18T09:33:39;42.87;;;22.60;;
5995;SDS011;3026;53.612;7.278;2023-11-18T09:36:13;38.90;;;22.93;;
5995;SDS011;3026;53.612;7.278;2023-11-18T09:38:44;41.50;;;22.83;;
5995;SDS011;3026;53.612;7.278;2023-11-18T09:41:12;38.90;;;23.33;;
5995;SDS011;3026;53.612;7.278;2023-11-18T09:43:41;40.10;;;22.37;;
5995;SDS011;3026;53.612;7.278;2023-11-18T09:46:10;41.43;;;23.23;;
5995;SDS011;3026;53.612;7.278;2023-11-18T09:48:41;41.27;;;22.77;;
5995;SDS011;3026;53.612;7.278;2023-11-18T09:51:13;38.20;;;23.33;;
5995;SDS011;3026;53.612;7.278;2023-11-18T09:53:46;40.17;;;22.60;;
5995;SDS011;3026;53.612;7.278;2023-11-18T09:56:23;42.00;;;22.40;;
5995;SDS011;3026;53.612;7.278;2023-11-18T09:59:05;43.80;;;22.17;;
5995;SDS011;3026;53.612;7.278;2023-11-18T10:01:42;39.17;;;22.10;;
5995;SDS011;3026;53.612;7.278;2023-11-18T10:04:10;47.73;;;23.43;;
5995;SDS011;3026;53.612;7.278;2023-11-18T10:06:40;39.40;;;23.20;;
5995;SDS011;3026;53.612;7.278;2023-11-18T10:09:11;43.00;;;23.10;;
5995;SDS011;3026;53.612;7.278;2023-11-18T10:11:59;44.33;;;22.23;;
5995;SDS011;3026;53.612;7.278;2023-11-18T10:14:30;44.60;;;23.63;;
5995;SDS011;3026;53.612;7.278;2023-11-18T10:16:57;41.90;;;23.27;;
5995;SDS011;3026;53.612;7.278;2023-11-18T10:19:39;43.00;;;23.83;;
5995;SDS011;3026;53.612;7.278;2023-11-18T10:22:21;43.43;;;23.87;;
5995;SDS011;3026;53.612;7.278;2023-11-18T10:24:51;45.07;;;22.67;;
5995;SDS011;3026;53.612;7.278;2023-11-18T10:27:20;41.90;;;22.60;;
5995;SDS011;3026;53.612;7.278;2023-11-18T10:29:51;39.10;;;23.27;;
5995;SDS011;3026;53.612;7.278;2023-11-18T10:32:22;40.03;;;23.17;;
5995;SDS011;3026;53.612;7.278;2023-11-18T10:34:53;45.57;;;22.53;;
5995;SDS011;3026;53.612;7.278;2023-11-18T10:37:25;42.73;;;23.00;;
5995;SDS011;3026;53.612;7.278;2023-11-18T10:39:55;44.67;;;23.80;;
5995;SDS011;3026;53.612;7.278;2023-11-18T10:42:25;41.07;;;22.13;;
5995;SDS011;3026;53.612;7.278;2023-11-18T10:44:55;44.70;;;24.67;;
5995;SDS011;3026;53.612;7.278;2023-11-18T10:47:25;43.90;;;24.30;;
5995;SDS011;3026;53.612;7.278;2023-11-18T10:49:55;45.10;;;24.80;;
5995;SDS011;3026;53.612;7.278;2023-11-18T10:52:25;49.70;;;24.67;;
5995;SDS011;3026;53.612;7.278;2023-11-18T10:54:56;45.10;;;24.13;;
5995;SDS011;3026;53.612;7.278;2023-11-18T10:57:24;44.47;;;24.13;;
5995;SDS011;3026;53.612;7.278;2023-11-18T11:00:00;42.83;;;23.20;;
5995;SDS011;3026;53.612;7.278;2023-11-18T11:02:30;46.50;;;25.00;;
5995;SDS011;3026;53.612;7.278;2023-11-18T11:05:03;41.47;;;23.30;;
5995;SDS011;3026;53.612;7.278;2023-11-18T11:07:35;44.60;;;23.40;;
5995;SDS011;3026;53.612;7.278;2023-11-18T11:10:06;44.33;;;23.87;;
5995;SDS011;3026;53.612;7.278;2023-11-18T11:12:40;46.83;;;24.60;;
5995;SDS011;3026;53.612;7.278;2023-11-18T11:15:17;37.93;;;21.17;;
5995;SDS011;3026;53.612;7.278;2023-11-18T11:17:51;42.80;;;22.27;;
5995;SDS011;3026;53.612;7.278;2023-11-18T11:20:21;39.37;;;22.00;;
5995;SDS011;3026;53.612;7.278;2023-11-18T11:23:00;39.03;;;21.50;;
5995;SDS011;3026;53.612;7.278;2023-11-18T11:25:37;41.53;;;23.17;;
5995;SDS011;3026;53.612;7.278;2023-11-18T11:28:10;41.30;;;22.73;;
5995;SDS011;3026;53.612;7.278;2023-11-18T11:30:42;36.83;;;20.90;;
5995;SDS011;3026;53.612;7.278;2023-11-18T11:33:17;33.50;;;19.90;;
5995;SDS011;3026;53.612;7.278;2023-11-18T11:35:55;39.00;;;21.77;;
5995;SDS011;3026;53.612;7.278;2023-11-18T11:38:25;39.87;;;20.83;;
5995;SDS011;3026;53.612;7.278;2023-11-18T11:40:54;34.47;;;20.13;;
5995;SDS011;3026;53.612;7.278;2023-11-18T11:43:23;39.83;;;19.73;;
5995;SDS011;3026;53.612;7.278;2023-11-18T11:45:53;33.10;;;19.37;;
5995;SDS011;3026;53.612;7.278;2023-11-18T11:48:22;33.77;;;19.40;;
5995;SDS011;3026;53.612;7.278;2023-11-18T11:50:55;33.70;;;19.33;;
5995;SDS011;3026;53.612;7.278;2023-11-18T11:53:32;31.77;;;18.63;;
5995;SDS011;3026;53.612;7.278;2023-11-18T11:56:04;29.47;;;18.60;;
5995;SDS011;3026;53.612;7.278;2023-11-18T11:58:34;32.80;;;18.60;;
5995;SDS011;3026;53.612;7.278;2023-11-18T12:01:14;40.90;;;19.13;;
5995;SDS011;3026;53.612;7.278;2023-11-18T12:03:45;35.43;;;19.17;;
5995;SDS011;3026;53.612;7.278;2023-11-18T12:06:18;31.07;;;17.07;;
5995;SDS011;3026;53.612;7.278;2023-11-18T12:08:48;30.73;;;18.33;;
5995;SDS011;3026;53.612;7.278;2023-11-18T12:11:17;28.83;;;17.83;;
5995;SDS011;3026;53.612;7.278;2023-11-18T12:13:59;27.67;;;16.73;;
5995;SDS011;3026;53.612;7.278;2023-11-18T12:19:30;30.07;;;16.30;;
5995;SDS011;3026;53.612;7.278;2023-11-18T12:22:02;29.73;;;17.63;;
5995;SDS011;3026;53.612;7.278;2023-11-18T12:24:39;28.33;;;16.23;;
5995;SDS011;3026;53.612;7.278;2023-11-18T12:27:09;27.20;;;17.10;;
5995;SDS011;3026;53.612;7.278;2023-11-18T12:29:41;28.70;;;17.23;;
5995;SDS011;3026;53.612;7.278;2023-11-18T12:32:09;29.73;;;16.33;;
5995;SDS011;3026;53.612;7.278;2023-11-18T12:34:52;29.20;;;16.27;;
5995;SDS011;3026;53.612;7.278;2023-11-18T12:43:46;33.83;;;17.03;;
5995;SDS011;3026;53.612;7.278;2023-11-18T12:49:18;26.40;;;15.23;;
5995;SDS011;3026;53.612;7.278;2023-11-18T12:51:49;25.43;;;14.87;;
5995;SDS011;3026;53.612;7.278;2023-11-18T12:54:17;27.70;;;14.63;;
5995;SDS011;3026;53.612;7.278;2023-11-18T12:56:48;29.87;;;15.70;;
5995;SDS011;3026;53.612;7.278;2023-11-18T12:59:18;25.07;;;14.27;;
5995;SDS011;3026;53.612;7.278;2023-11-18T13:01:49;24.50;;;14.80;;
5995;SDS011;3026;53.612;7.278;2023-11-18T13:04:18;26.17;;;14.67;;
5995;SDS011;3026;53.612;7.278;2023-11-18T13:06:49;27.80;;;14.33;;
5995;SDS011;3026;53.612;7.278;2023-11-18T13:09:17;26.47;;;14.93;;
5995;SDS011;3026;53.612;7.278;2023-11-18T13:11:54;22.80;;;13.50;;
5995;SDS011;3026;53.612;7.278;2023-11-18T13:14:23;23.53;;;13.33;;
5995;SDS011;3026;53.612;7.278;2023-11-18T13:16:55;24.43;;;14.63;;
5995;SDS011;3026;53.612;7.278;2023-11-18T13:19:23;26.67;;;14.57;;
5995;SDS011;3026;53.612;7.278;2023-11-18T13:21:51;23.93;;;13.93;;
5995;SDS011;3026;53.612;7.278;2023-11-18T13:24:22;24.87;;;13.50;;
5995;SDS011;3026;53.612;7.278;2023-11-18T13:26:49;24.67;;;14.40;;
5995;SDS011;3026;53.612;7.278;2023-11-18T13:29:18;24.97;;;14.17;;
5995;SDS011;3026;53.612;7.278;2023-11-18T13:31:48;22.47;;;13.73;;
5995;SDS011;3026;53.612;7.278;2023-11-18T13:34:16;24.90;;;14.67;;
5995;SDS011;3026;53.612;7.278;2023-11-18T13:36:44;27.43;;;13.70;;
5995;SDS011;3026;53.612;7.278;2023-11-18T13:39:15;28.20;;;15.83;;
5995;SDS011;3026;53.612;7.278;2023-11-18T13:41:43;29.00;;;14.73;;
5995;SDS011;3026;53.612;7.278;2023-11-18T13:44:10;21.90;;;13.57;;
5995;SDS011;3026;53.612;7.278;2023-11-18T13:46:41;29.27;;;14.77;;
5995;SDS011;3026;53.612;7.278;2023-11-18T13:49:09;26.67;;;14.50;;
5995;SDS011;3026;53.612;7.278;2023-11-18T13:51:37;22.67;;;14.53;;
5995;SDS011;3026;53.612;7.278;2023-11-18T13:54:05;28.43;;;14.70;;
5995;SDS011;3026;53.612;7.278;2023-11-18T13:56:32;24.47;;;14.20;;
5995;SDS011;3026;53.612;7.278;2023-11-18T13:58:59;26.83;;;14.60;;
5995;SDS011;3026;53.612;7.278;2023-11-18T14:01:32;26.83;;;13.57;;
5995;SDS011;3026;53.612;7.278;2023-11-18T14:04:00;24.97;;;13.87;;
5995;SDS011;3026;53.612;7.278;2023-11-18T14:06:30;25.97;;;14.33;;
5995;SDS011;3026;53.612;7.278;2023-11-18T14:08:57;22.87;;;13.30;;
5995;SDS011;3026;53.612;7.278;2023-11-18T14:11:25;27.47;;;13.67;;
5995;SDS011;3026;53.612;7.278;2023-11-18T14:13:52;25.47;;;14.10;;
5995;SDS011;3026;53.612;7.278;2023-11-18T14:16:21;25.70;;;13.63;;
5995;SDS011;3026;53.612;7.278;2023-11-18T14:18:49;26.67;;;14.27;;
5995;SDS011;3026;53.612;7.278;2023-11-18T14:21:18;24.17;;;14.47;;
5995;SDS011;3026;53.612;7.278;2023-11-18T14:23:45;21.53;;;13.43;;
5995;SDS011;3026;53.612;7.278;2023-11-18T14:26:12;24.93;;;13.97;;
5995;SDS011;3026;53.612;7.278;2023-11-18T14:28:40;25.70;;;14.03;;
5995;SDS011;3026;53.612;7.278;2023-11-18T14:31:09;25.10;;;13.43;;
5995;SDS011;3026;53.612;7.278;2023-11-18T14:33:36;24.23;;;13.67;;
5995;SDS011;3026;53.612;7.278;2023-11-18T14:36:03;22.50;;;13.47;;
5995;SDS011;3026;53.612;7.278;2023-11-18T14:38:34;21.90;;;13.37;;
5995;SDS011;3026;53.612;7.278;2023-11-18T14:41:02;23.30;;;13.10;;
5995;SDS011;3026;53.612;7.278;2023-11-18T14:43:29;26.13;;;14.93;;
5995;SDS011;3026;53.612;7.278;2023-11-18T14:45:58;23.47;;;13.33;;
5995;SDS011;3026;53.612;7.278;2023-11-18T14:48:25;24.30;;;13.53;;
5995;SDS011;3026;53.612;7.278;2023-11-18T14:50:53;26.97;;;13.47;;
5995;SDS011;3026;53.612;7.278;2023-11-18T14:53:22;25.30;;;13.40;;
5995;SDS011;3026;53.612;7.278;2023-11-18T14:55:54;32.13;;;15.57;;
5995;SDS011;3026;53.612;7.278;2023-11-18T14:58:22;21.47;;;12.67;;
5995;SDS011;3026;53.612;7.278;2023-11-18T15:00:51;23.83;;;13.33;;
5995;SDS011;3026;53.612;7.278;2023-11-18T15:03:22;23.97;;;13.47;;
5995;SDS011;3026;53.612;7.278;2023-11-18T15:05:52;24.73;;;13.33;;
5995;SDS011;3026;53.612;7.278;2023-11-18T15:08:21;18.20;;;10.80;;
5995;SDS011;3026;53.612;7.278;2023-11-18T15:10:48;21.67;;;12.63;;
5995;SDS011;3026;53.612;7.278;2023-11-18T15:13:17;21.87;;;12.50;;
5995;SDS011;3026;53.612;7.278;2023-11-18T15:15:46;20.97;;;12.80;;